sensor_id;sensor_type;location;lat;lon;timestamp;P1;durP1;ratioP1;P2;durP2;ratioP2
76566;SDS011;65428;53.194;6.132;2023-06-14T00:01:46;4.40;;;1.50;;
76566;SDS011;65428;53.194;6.132;2023-06-14T00:04:12;4.95;;;1.00;;
76566;SDS011;65428;53.194;6.132;2023-06-14T00:06:38;4.80;;;1.10;;
76566;SDS011;65428;53.194;6.132;2023-06-14T00:09:06;3.95;;;1.33;;
76566;SDS011;65428;53.194;6.132;2023-06-14T00:11:33;4.10;;;1.27;;
76566;SDS011;65428;53.194;6.132;2023-06-14T00:13:59;5.53;;;1.20;;
76566;SDS011;65428;53.194;6.132;2023-06-14T00:16:24;2.95;;;1.00;;
76566;SDS011;65428;53.194;6.132;2023-06-14T00:18:50;4.37;;;1.20;;
76566;SDS011;65428;53.194;6.132;2023-06-14T00:21:19;4.82;;;1.10;;
76566;SDS011;65428;53.194;6.132;2023-06-14T00:23:44;4.53;;;1.20;;
76566;SDS011;65428;53.194;6.132;2023-06-14T00:26:10;2.30;;;1.00;;
76566;SDS011;65428;53.194;6.132;2023-06-14T00:28:36;5.15;;;1.02;;
76566;SDS011;65428;53.194;6.132;2023-06-14T00:31:02;3.17;;;1.00;;
76566;SDS011;65428;53.194;6.132;2023-06-14T00:33:27;3.35;;;1.20;;
76566;SDS011;65428;53.194;6.132;2023-06-14T00:35:53;3.53;;;1.00;;
76566;SDS011;65428;53.194;6.132;2023-06-14T00:38:19;3.30;;;1.00;;
76566;SDS011;65428;53.194;6.132;2023-06-14T00:40:46;4.32;;;1.02;;
76566;SDS011;65428;53.194;6.132;2023-06-14T00:43:12;2.95;;;0.82;;
76566;SDS011;65428;53.194;6.132;2023-06-14T00:45:37;2.43;;;1.07;;
76566;SDS011;65428;53.194;6.132;2023-06-14T00:48:04;3.27;;;1.10;;
76566;SDS011;65428;53.194;6.132;2023-06-14T00:50:32;2.70;;;0.97;;
76566;SDS011;65428;53.194;6.132;2023-06-14T00:52:58;3.65;;;1.10;;
76566;SDS011;65428;53.194;6.132;2023-06-14T00:55:26;3.20;;;0.77;;
76566;SDS011;65428;53.194;6.132;2023-06-14T00:57:52;2.95;;;0.98;;
76566;SDS011;65428;53.194;6.132;2023-06-14T01:00:19;2.67;;;0.90;;
76566;SDS011;65428;53.194;6.132;2023-06-14T01:02:44;3.45;;;1.08;;
76566;SDS011;65428;53.194;6.132;2023-06-14T01:05:10;3.37;;;1.10;;
76566;SDS011;65428;53.194;6.132;2023-06-14T01:13:02;3.30;;;0.83;;
76566;SDS011;65428;53.194;6.132;2023-06-14T01:15:40;4.22;;;0.93;;
76566;SDS011;65428;53.194;6.132;2023-06-14T01:18:08;4.40;;;0.85;;
76566;SDS011;65428;53.194;6.132;2023-06-14T01:20:42;4.30;;;0.87;;
76566;SDS011;65428;53.194;6.132;2023-06-14T01:23:15;3.38;;;1.00;;
76566;SDS011;65428;53.194;6.132;2023-06-14T01:25:43;3.33;;;0.82;;
76566;SDS011;65428;53.194;6.132;2023-06-14T01:28:10;2.80;;;0.83;;
76566;SDS011;65428;53.194;6.132;2023-06-14T01:30:38;4.23;;;1.00;;
76566;SDS011;65428;53.194;6.132;2023-06-14T01:33:09;4.00;;;0.80;;
76566;SDS011;65428;53.194;6.132;2023-06-14T01:35:40;3.25;;;0.82;;
76566;SDS011;65428;53.194;6.132;2023-06-14T01:38:10;3.15;;;1.05;;
76566;SDS011;65428;53.194;6.132;2023-06-14T01:40:37;3.72;;;1.10;;
76566;SDS011;65428;53.194;6.132;2023-06-14T01:43:04;3.50;;;0.90;;
76566;SDS011;65428;53.194;6.132;2023-06-14T01:45:31;3.25;;;1.00;;
76566;SDS011;65428;53.194;6.132;2023-06-14T01:47:58;3.20;;;1.20;;
76566;SDS011;65428;53.194;6.132;2023-06-14T01:50:28;3.33;;;1.00;;
76566;SDS011;65428;53.194;6.132;2023-06-14T01:52:57;4.32;;;1.00;;
76566;SDS011;65428;53.194;6.132;2023-06-14T01:55:23;2.53;;;1.10;;
76566;SDS011;65428;53.194;6.132;2023-06-14T01:57:50;3.17;;;1.00;;
76566;SDS011;65428;53.194;6.132;2023-06-14T02:00:16;4.22;;;1.35;;
76566;SDS011;65428;53.194;6.132;2023-06-14T02:02:43;3.38;;;1.00;;
76566;SDS011;65428;53.194;6.132;2023-06-14T02:05:09;3.95;;;1.10;;
76566;SDS011;65428;53.194;6.132;2023-06-14T02:07:35;4.13;;;1.25;;
76566;SDS011;65428;53.194;6.132;2023-06-14T02:10:02;3.00;;;1.15;;
76566;SDS011;65428;53.194;6.132;2023-06-14T02:12:29;3.58;;;1.42;;
76566;SDS011;65428;53.194;6.132;2023-06-14T02:14:54;4.03;;;1.40;;
76566;SDS011;65428;53.194;6.132;2023-06-14T02:17:21;4.75;;;1.10;;
76566;SDS011;65428;53.194;6.132;2023-06-14T02:19:47;3.50;;;0.98;;
76566;SDS011;65428;53.194;6.132;2023-06-14T02:22:14;3.90;;;1.30;;
76566;SDS011;65428;53.194;6.132;2023-06-14T02:24:40;4.10;;;1.50;;
76566;SDS011;65428;53.194;6.132;2023-06-14T02:27:06;3.35;;;1.40;;
76566;SDS011;65428;53.194;6.132;2023-06-14T02:29:35;3.72;;;1.50;;
76566;SDS011;65428;53.194;6.132;2023-06-14T02:32:01;2.22;;;1.35;;
76566;SDS011;65428;53.194;6.132;2023-06-14T02:34:27;4.82;;;1.40;;
76566;SDS011;65428;53.194;6.132;2023-06-14T02:36:53;2.53;;;1.42;;
76566;SDS011;65428;53.194;6.132;2023-06-14T02:39:18;2.93;;;1.50;;
76566;SDS011;65428;53.194;6.132;2023-06-14T02:41:46;4.13;;;1.45;;
76566;SDS011;65428;53.194;6.132;2023-06-14T02:44:13;4.20;;;1.40;;
76566;SDS011;65428;53.194;6.132;2023-06-14T02:46:39;3.55;;;1.25;;
76566;SDS011;65428;53.194;6.132;2023-06-14T02:49:04;3.90;;;1.37;;
76566;SDS011;65428;53.194;6.132;2023-06-14T02:51:30;2.78;;;1.38;;
76566;SDS011;65428;53.194;6.132;2023-06-14T02:53:56;4.00;;;1.40;;
76566;SDS011;65428;53.194;6.132;2023-06-14T02:56:21;4.23;;;1.50;;
76566;SDS011;65428;53.194;6.132;2023-06-14T02:58:47;3.08;;;1.20;;
76566;SDS011;65428;53.194;6.132;2023-06-14T03:01:13;2.90;;;1.60;;
76566;SDS011;65428;53.194;6.132;2023-06-14T03:03:39;3.40;;;1.70;;
76566;SDS011;65428;53.194;6.132;2023-06-14T03:06:05;4.73;;;1.80;;
76566;SDS011;65428;53.194;6.132;2023-06-14T03:08:33;3.40;;;1.73;;
76566;SDS011;65428;53.194;6.132;2023-06-14T03:11:03;3.60;;;1.77;;
76566;SDS011;65428;53.194;6.132;2023-06-14T03:13:30;2.70;;;1.60;;
76566;SDS011;65428;53.194;6.132;2023-06-14T03:15:59;2.70;;;1.40;;
76566;SDS011;65428;53.194;6.132;2023-06-14T03:18:27;3.80;;;1.70;;
76566;SDS011;65428;53.194;6.132;2023-06-14T03:20:55;3.45;;;1.63;;
76566;SDS011;65428;53.194;6.132;2023-06-14T03:23:23;5.03;;;1.97;;
76566;SDS011;65428;53.194;6.132;2023-06-14T03:25:50;3.58;;;1.75;;
76566;SDS011;65428;53.194;6.132;2023-06-14T03:28:16;2.67;;;1.70;;
76566;SDS011;65428;53.194;6.132;2023-06-14T03:30:42;3.65;;;2.05;;
76566;SDS011;65428;53.194;6.132;2023-06-14T03:33:08;5.50;;;2.00;;
76566;SDS011;65428;53.194;6.132;2023-06-14T03:35:34;4.10;;;1.70;;
76566;SDS011;65428;53.194;6.132;2023-06-14T03:38:00;4.75;;;2.40;;
76566;SDS011;65428;53.194;6.132;2023-06-14T03:40:25;3.97;;;2.30;;
76566;SDS011;65428;53.194;6.132;2023-06-14T03:42:52;3.63;;;1.92;;
76566;SDS011;65428;53.194;6.132;2023-06-14T03:45:18;4.73;;;1.63;;
76566;SDS011;65428;53.194;6.132;2023-06-14T03:47:44;4.75;;;2.22;;
76566;SDS011;65428;53.194;6.132;2023-06-14T03:50:10;5.00;;;2.05;;
76566;SDS011;65428;53.194;6.132;2023-06-14T03:52:36;4.63;;;2.00;;
76566;SDS011;65428;53.194;6.132;2023-06-14T03:55:02;3.23;;;1.90;;
76566;SDS011;65428;53.194;6.132;2023-06-14T03:57:29;3.42;;;2.20;;
76566;SDS011;65428;53.194;6.132;2023-06-14T03:59:55;4.90;;;2.17;;
76566;SDS011;65428;53.194;6.132;2023-06-14T04:02:20;3.38;;;2.10;;
76566;SDS011;65428;53.194;6.132;2023-06-14T04:04:47;4.47;;;2.55;;
76566;SDS011;65428;53.194;6.132;2023-06-14T04:07:13;4.40;;;2.57;;
76566;SDS011;65428;53.194;6.132;2023-06-14T04:09:40;4.18;;;2.55;;
76566;SDS011;65428;53.194;6.132;2023-06-14T04:12:06;2.85;;;2.10;;
76566;SDS011;65428;53.194;6.132;2023-06-14T04:14:34;3.83;;;2.10;;
76566;SDS011;65428;53.194;6.132;2023-06-14T04:16:59;4.27;;;2.23;;
76566;SDS011;65428;53.194;6.132;2023-06-14T04:19:25;4.23;;;2.37;;
76566;SDS011;65428;53.194;6.132;2023-06-14T04:21:51;4.85;;;2.47;;
76566;SDS011;65428;53.194;6.132;2023-06-14T04:24:17;4.53;;;2.30;;
76566;SDS011;65428;53.194;6.132;2023-06-14T04:26:43;4.50;;;1.90;;
76566;SDS011;65428;53.194;6.132;2023-06-14T04:29:13;4.75;;;2.30;;
76566;SDS011;65428;53.194;6.132;2023-06-14T04:31:41;4.00;;;2.38;;
76566;SDS011;65428;53.194;6.132;2023-06-14T04:34:07;4.70;;;2.20;;
76566;SDS011;65428;53.194;6.132;2023-06-14T04:36:33;3.63;;;2.00;;
76566;SDS011;65428;53.194;6.132;2023-06-14T04:39:02;5.07;;;2.20;;
76566;SDS011;65428;53.194;6.132;2023-06-14T04:41:32;5.10;;;2.47;;
76566;SDS011;65428;53.194;6.132;2023-06-14T04:43:58;4.40;;;1.73;;
76566;SDS011;65428;53.194;6.132;2023-06-14T04:46:29;6.20;;;2.30;;
76566;SDS011;65428;53.194;6.132;2023-06-14T04:48:57;4.40;;;1.73;;
76566;SDS011;65428;53.194;6.132;2023-06-14T04:51:27;4.13;;;2.03;;
76566;SDS011;65428;53.194;6.132;2023-06-14T04:53:58;4.55;;;1.95;;
76566;SDS011;65428;53.194;6.132;2023-06-14T04:56:24;4.17;;;1.97;;
76566;SDS011;65428;53.194;6.132;2023-06-14T04:58:51;5.22;;;2.05;;
76566;SDS011;65428;53.194;6.132;2023-06-14T05:01:18;5.93;;;2.13;;
76566;SDS011;65428;53.194;6.132;2023-06-14T05:03:44;3.28;;;2.22;;
76566;SDS011;65428;53.194;6.132;2023-06-14T05:06:10;3.53;;;1.90;;
76566;SDS011;65428;53.194;6.132;2023-06-14T05:08:37;3.72;;;2.28;;
76566;SDS011;65428;53.194;6.132;2023-06-14T05:11:02;4.50;;;2.15;;
76566;SDS011;65428;53.194;6.132;2023-06-14T05:13:28;3.30;;;2.00;;
76566;SDS011;65428;53.194;6.132;2023-06-14T05:15:54;4.97;;;2.00;;
76566;SDS011;65428;53.194;6.132;2023-06-14T05:18:19;2.73;;;1.73;;
76566;SDS011;65428;53.194;6.132;2023-06-14T05:20:45;4.32;;;2.30;;
76566;SDS011;65428;53.194;6.132;2023-06-14T05:23:11;5.90;;;2.10;;
76566;SDS011;65428;53.194;6.132;2023-06-14T05:25:41;4.78;;;2.13;;
76566;SDS011;65428;53.194;6.132;2023-06-14T05:28:08;3.33;;;2.10;;
76566;SDS011;65428;53.194;6.132;2023-06-14T05:30:34;2.83;;;1.85;;
76566;SDS011;65428;53.194;6.132;2023-06-14T05:32:59;4.50;;;1.90;;
76566;SDS011;65428;53.194;6.132;2023-06-14T05:35:25;3.97;;;2.00;;
76566;SDS011;65428;53.194;6.132;2023-06-14T05:37:52;4.32;;;2.22;;
76566;SDS011;65428;53.194;6.132;2023-06-14T05:40:18;3.80;;;2.00;;
76566;SDS011;65428;53.194;6.132;2023-06-14T05:42:45;4.53;;;2.38;;
76566;SDS011;65428;53.194;6.132;2023-06-14T05:45:11;5.55;;;2.08;;
76566;SDS011;65428;53.194;6.132;2023-06-14T05:47:36;3.75;;;1.83;;
76566;SDS011;65428;53.194;6.132;2023-06-14T05:50:02;5.33;;;1.93;;
76566;SDS011;65428;53.194;6.132;2023-06-14T05:52:28;5.82;;;2.30;;
76566;SDS011;65428;53.194;6.132;2023-06-14T05:54:54;5.22;;;2.15;;
76566;SDS011;65428;53.194;6.132;2023-06-14T05:57:20;4.13;;;2.05;;
76566;SDS011;65428;53.194;6.132;2023-06-14T05:59:46;3.73;;;2.23;;
76566;SDS011;65428;53.194;6.132;2023-06-14T06:02:11;4.50;;;1.98;;
76566;SDS011;65428;53.194;6.132;2023-06-14T06:04:37;4.90;;;2.03;;
76566;SDS011;65428;53.194;6.132;2023-06-14T06:07:02;5.93;;;2.03;;
76566;SDS011;65428;53.194;6.132;2023-06-14T06:09:29;5.15;;;2.30;;
76566;SDS011;65428;53.194;6.132;2023-06-14T06:11:55;6.18;;;2.28;;
76566;SDS011;65428;53.194;6.132;2023-06-14T06:14:20;5.18;;;1.90;;
76566;SDS011;65428;53.194;6.132;2023-06-14T06:16:46;4.00;;;1.80;;
76566;SDS011;65428;53.194;6.132;2023-06-14T06:19:12;4.43;;;1.80;;
76566;SDS011;65428;53.194;6.132;2023-06-14T06:21:37;4.60;;;2.10;;
76566;SDS011;65428;53.194;6.132;2023-06-14T06:24:04;3.42;;;2.10;;
76566;SDS011;65428;53.194;6.132;2023-06-14T06:26:31;4.90;;;2.10;;
76566;SDS011;65428;53.194;6.132;2023-06-14T06:28:57;4.40;;;1.75;;
76566;SDS011;65428;53.194;6.132;2023-06-14T06:31:24;3.53;;;2.00;;
76566;SDS011;65428;53.194;6.132;2023-06-14T06:33:50;3.25;;;1.90;;
76566;SDS011;65428;53.194;6.132;2023-06-14T06:36:16;3.92;;;1.92;;
76566;SDS011;65428;53.194;6.132;2023-06-14T06:38:42;3.93;;;1.70;;
76566;SDS011;65428;53.194;6.132;2023-06-14T06:41:07;4.97;;;1.83;;
76566;SDS011;65428;53.194;6.132;2023-06-14T06:43:33;3.70;;;1.70;;
76566;SDS011;65428;53.194;6.132;2023-06-14T06:45:58;4.70;;;1.87;;
76566;SDS011;65428;53.194;6.132;2023-06-14T06:48:24;3.95;;;1.60;;
76566;SDS011;65428;53.194;6.132;2023-06-14T06:50:50;4.13;;;1.63;;
76566;SDS011;65428;53.194;6.132;2023-06-14T06:53:16;4.38;;;1.80;;
76566;SDS011;65428;53.194;6.132;2023-06-14T06:55:43;4.70;;;1.70;;
76566;SDS011;65428;53.194;6.132;2023-06-14T06:58:09;3.28;;;1.60;;
76566;SDS011;65428;53.194;6.132;2023-06-14T07:00:35;3.23;;;1.50;;
76566;SDS011;65428;53.194;6.132;2023-06-14T07:03:00;3.28;;;1.45;;
76566;SDS011;65428;53.194;6.132;2023-06-14T07:05:26;4.30;;;1.33;;
76566;SDS011;65428;53.194;6.132;2023-06-14T07:07:52;4.63;;;1.50;;
76566;SDS011;65428;53.194;6.132;2023-06-14T07:10:18;3.30;;;1.50;;
76566;SDS011;65428;53.194;6.132;2023-06-14T07:12:43;3.22;;;1.38;;
76566;SDS011;65428;53.194;6.132;2023-06-14T07:15:09;4.00;;;1.38;;
76566;SDS011;65428;53.194;6.132;2023-06-14T07:17:36;3.63;;;1.30;;
76566;SDS011;65428;53.194;6.132;2023-06-14T07:20:02;2.60;;;1.20;;
76566;SDS011;65428;53.194;6.132;2023-06-14T07:22:32;4.90;;;1.30;;
76566;SDS011;65428;53.194;6.132;2023-06-14T07:24:58;3.33;;;1.33;;
76566;SDS011;65428;53.194;6.132;2023-06-14T07:27:23;2.70;;;1.10;;
76566;SDS011;65428;53.194;6.132;2023-06-14T07:29:49;1.87;;;1.00;;
76566;SDS011;65428;53.194;6.132;2023-06-14T07:32:15;4.35;;;1.00;;
76566;SDS011;65428;53.194;6.132;2023-06-14T07:34:40;4.50;;;1.20;;
76566;SDS011;65428;53.194;6.132;2023-06-14T07:37:06;3.43;;;1.40;;
76566;SDS011;65428;53.194;6.132;2023-06-14T07:39:31;4.32;;;1.00;;
76566;SDS011;65428;53.194;6.132;2023-06-14T07:41:57;2.27;;;1.23;;
76566;SDS011;65428;53.194;6.132;2023-06-14T07:44:22;3.33;;;0.90;;
76566;SDS011;65428;53.194;6.132;2023-06-14T07:46:48;3.33;;;0.93;;
76566;SDS011;65428;53.194;6.132;2023-06-14T07:49:16;2.95;;;1.15;;
76566;SDS011;65428;53.194;6.132;2023-06-14T07:51:42;3.37;;;1.10;;
76566;SDS011;65428;53.194;6.132;2023-06-14T07:54:09;3.63;;;1.00;;
76566;SDS011;65428;53.194;6.132;2023-06-14T07:56:35;2.90;;;1.20;;
76566;SDS011;65428;53.194;6.132;2023-06-14T07:59:01;3.90;;;1.23;;
76566;SDS011;65428;53.194;6.132;2023-06-14T08:01:27;3.35;;;1.20;;
76566;SDS011;65428;53.194;6.132;2023-06-14T08:03:53;3.80;;;1.10;;
76566;SDS011;65428;53.194;6.132;2023-06-14T08:06:19;5.37;;;1.20;;
76566;SDS011;65428;53.194;6.132;2023-06-14T08:08:44;3.33;;;1.15;;
76566;SDS011;65428;53.194;6.132;2023-06-14T08:11:10;5.07;;;1.20;;
76566;SDS011;65428;53.194;6.132;2023-06-14T08:13:36;2.63;;;1.10;;
76566;SDS011;65428;53.194;6.132;2023-06-14T08:16:01;3.10;;;1.20;;
76566;SDS011;65428;53.194;6.132;2023-06-14T08:18:29;2.25;;;0.80;;
76566;SDS011;65428;53.194;6.132;2023-06-14T08:20:55;4.00;;;1.07;;
76566;SDS011;65428;53.194;6.132;2023-06-14T08:23:22;3.00;;;1.27;;
76566;SDS011;65428;53.194;6.132;2023-06-14T08:25:48;3.95;;;1.15;;
76566;SDS011;65428;53.194;6.132;2023-06-14T08:28:14;3.08;;;1.38;;
76566;SDS011;65428;53.194;6.132;2023-06-14T08:30:41;3.57;;;1.10;;
76566;SDS011;65428;53.194;6.132;2023-06-14T08:33:07;2.50;;;1.23;;
76566;SDS011;65428;53.194;6.132;2023-06-14T08:35:33;2.55;;;1.10;;
76566;SDS011;65428;53.194;6.132;2023-06-14T08:38:02;2.72;;;1.20;;
76566;SDS011;65428;53.194;6.132;2023-06-14T08:40:28;4.18;;;1.23;;
76566;SDS011;65428;53.194;6.132;2023-06-14T08:42:55;4.63;;;1.48;;
76566;SDS011;65428;53.194;6.132;2023-06-14T08:45:22;2.50;;;1.20;;
76566;SDS011;65428;53.194;6.132;2023-06-14T08:47:52;4.55;;;1.13;;
76566;SDS011;65428;53.194;6.132;2023-06-14T08:50:23;5.82;;;0.90;;
76566;SDS011;65428;53.194;6.132;2023-06-14T08:52:55;4.28;;;1.00;;
76566;SDS011;65428;53.194;6.132;2023-06-14T08:55:25;3.10;;;1.10;;
76566;SDS011;65428;53.194;6.132;2023-06-14T08:57:55;3.55;;;1.00;;
76566;SDS011;65428;53.194;6.132;2023-06-14T09:00:25;2.77;;;1.00;;
76566;SDS011;65428;53.194;6.132;2023-06-14T09:02:52;6.40;;;1.15;;
76566;SDS011;65428;53.194;6.132;2023-06-14T09:05:26;3.97;;;1.10;;
76566;SDS011;65428;53.194;6.132;2023-06-14T09:07:53;3.55;;;1.00;;
76566;SDS011;65428;53.194;6.132;2023-06-14T09:10:20;3.03;;;0.93;;
76566;SDS011;65428;53.194;6.132;2023-06-14T09:12:46;4.03;;;1.00;;
76566;SDS011;65428;53.194;6.132;2023-06-14T09:15:12;4.72;;;1.10;;
76566;SDS011;65428;53.194;6.132;2023-06-14T09:17:39;3.55;;;1.10;;
76566;SDS011;65428;53.194;6.132;2023-06-14T09:20:06;3.00;;;0.73;;
76566;SDS011;65428;53.194;6.132;2023-06-14T09:22:35;3.50;;;1.10;;
76566;SDS011;65428;53.194;6.132;2023-06-14T09:25:05;3.38;;;1.08;;
76566;SDS011;65428;53.194;6.132;2023-06-14T09:27:31;3.15;;;0.90;;
76566;SDS011;65428;53.194;6.132;2023-06-14T09:29:57;5.25;;;0.90;;
76566;SDS011;65428;53.194;6.132;2023-06-14T09:32:23;5.53;;;0.90;;
76566;SDS011;65428;53.194;6.132;2023-06-14T09:34:50;4.45;;;0.90;;
76566;SDS011;65428;53.194;6.132;2023-06-14T09:37:29;3.30;;;1.00;;
76566;SDS011;65428;53.194;6.132;2023-06-14T09:39:55;2.90;;;0.80;;
76566;SDS011;65428;53.194;6.132;2023-06-14T09:42:22;6.32;;;1.02;;
76566;SDS011;65428;53.194;6.132;2023-06-14T09:44:51;2.95;;;1.10;;
76566;SDS011;65428;53.194;6.132;2023-06-14T09:47:18;2.25;;;0.90;;
76566;SDS011;65428;53.194;6.132;2023-06-14T09:49:44;3.38;;;0.90;;
76566;SDS011;65428;53.194;6.132;2023-06-14T09:52:10;4.40;;;1.10;;
76566;SDS011;65428;53.194;6.132;2023-06-14T09:54:41;2.67;;;0.80;;
76566;SDS011;65428;53.194;6.132;2023-06-14T09:57:08;1.98;;;0.70;;
76566;SDS011;65428;53.194;6.132;2023-06-14T09:59:36;2.97;;;0.80;;
76566;SDS011;65428;53.194;6.132;2023-06-14T10:04:58;4.15;;;0.80;;
76566;SDS011;65428;53.194;6.132;2023-06-14T10:07:52;2.72;;;0.60;;
76566;SDS011;65428;53.194;6.132;2023-06-14T10:10:24;3.03;;;0.90;;
76566;SDS011;65428;53.194;6.132;2023-06-14T10:12:50;3.20;;;0.90;;
76566;SDS011;65428;53.194;6.132;2023-06-14T10:18:19;3.53;;;1.38;;
76566;SDS011;65428;53.194;6.132;2023-06-14T10:23:42;3.67;;;0.90;;
76566;SDS011;65428;53.194;6.132;2023-06-14T10:26:13;3.70;;;0.82;;
76566;SDS011;65428;53.194;6.132;2023-06-14T10:29:22;2.38;;;0.90;;
76566;SDS011;65428;53.194;6.132;2023-06-14T10:31:44;2.33;;;0.95;;
76566;SDS011;65428;53.194;6.132;2023-06-14T10:34:12;3.60;;;0.83;;
76566;SDS011;65428;53.194;6.132;2023-06-14T10:36:50;3.70;;;0.90;;
76566;SDS011;65428;53.194;6.132;2023-06-14T10:39:29;2.92;;;0.90;;
76566;SDS011;65428;53.194;6.132;2023-06-14T10:41:55;2.45;;;0.82;;
76566;SDS011;65428;53.194;6.132;2023-06-14T10:46:48;4.93;;;0.90;;
76566;SDS011;65428;53.194;6.132;2023-06-14T10:52:07;3.90;;;0.60;;
76566;SDS011;65428;53.194;6.132;2023-06-14T10:54:37;1.50;;;0.77;;
76566;SDS011;65428;53.194;6.132;2023-06-14T10:57:02;2.53;;;0.80;;
76566;SDS011;65428;53.194;6.132;2023-06-14T10:59:32;3.05;;;0.80;;
76566;SDS011;65428;53.194;6.132;2023-06-14T11:04:59;2.10;;;0.70;;
76566;SDS011;65428;53.194;6.132;2023-06-14T11:10:26;2.80;;;1.10;;
76566;SDS011;65428;53.194;6.132;2023-06-14T11:13:01;2.53;;;1.08;;
76566;SDS011;65428;53.194;6.132;2023-06-14T11:15:31;2.95;;;0.80;;
76566;SDS011;65428;53.194;6.132;2023-06-14T11:18:01;3.20;;;0.77;;
76566;SDS011;65428;53.194;6.132;2023-06-14T11:20:29;1.98;;;0.68;;
76566;SDS011;65428;53.194;6.132;2023-06-14T11:22:56;2.92;;;0.90;;
76566;SDS011;65428;53.194;6.132;2023-06-14T11:25:22;3.33;;;0.90;;
76566;SDS011;65428;53.194;6.132;2023-06-14T11:27:49;4.40;;;0.90;;
76566;SDS011;65428;53.194;6.132;2023-06-14T11:30:15;4.07;;;0.93;;
76566;SDS011;65428;53.194;6.132;2023-06-14T11:32:41;3.17;;;0.97;;
76566;SDS011;65428;53.194;6.132;2023-06-14T11:35:07;3.38;;;0.90;;
76566;SDS011;65428;53.194;6.132;2023-06-14T11:37:34;5.13;;;0.82;;
76566;SDS011;65428;53.194;6.132;2023-06-14T11:40:06;3.25;;;0.77;;
76566;SDS011;65428;53.194;6.132;2023-06-14T11:42:36;3.38;;;0.70;;
76566;SDS011;65428;53.194;6.132;2023-06-14T11:45:03;2.77;;;0.90;;
76566;SDS011;65428;53.194;6.132;2023-06-14T11:47:34;1.60;;;0.75;;
76566;SDS011;65428;53.194;6.132;2023-06-14T11:50:04;2.50;;;0.70;;
76566;SDS011;65428;53.194;6.132;2023-06-14T11:52:31;3.03;;;0.63;;
76566;SDS011;65428;53.194;6.132;2023-06-14T11:54:57;2.33;;;0.73;;
76566;SDS011;65428;53.194;6.132;2023-06-14T11:57:23;3.30;;;0.70;;
76566;SDS011;65428;53.194;6.132;2023-06-14T11:59:50;4.70;;;0.65;;
76566;SDS011;65428;53.194;6.132;2023-06-14T12:02:16;2.10;;;0.75;;
76566;SDS011;65428;53.194;6.132;2023-06-14T12:04:43;4.82;;;0.70;;
76566;SDS011;65428;53.194;6.132;2023-06-14T12:07:12;4.82;;;0.90;;
76566;SDS011;65428;53.194;6.132;2023-06-14T12:10:04;3.80;;;0.70;;
76566;SDS011;65428;53.194;6.132;2023-06-14T12:12:34;3.78;;;0.77;;
76566;SDS011;65428;53.194;6.132;2023-06-14T12:15:02;4.88;;;0.90;;
76566;SDS011;65428;53.194;6.132;2023-06-14T12:17:34;1.48;;;0.55;;
76566;SDS011;65428;53.194;6.132;2023-06-14T12:20:11;2.87;;;0.67;;
76566;SDS011;65428;53.194;6.132;2023-06-14T12:22:54;3.13;;;0.50;;
76566;SDS011;65428;53.194;6.132;2023-06-14T12:25:34;2.97;;;0.57;;
76566;SDS011;65428;53.194;6.132;2023-06-14T12:28:07;6.43;;;0.90;;
76566;SDS011;65428;53.194;6.132;2023-06-14T12:30:37;2.38;;;0.50;;
76566;SDS011;65428;53.194;6.132;2023-06-14T12:33:03;2.67;;;0.65;;
76566;SDS011;65428;53.194;6.132;2023-06-14T12:35:29;2.28;;;0.60;;
76566;SDS011;65428;53.194;6.132;2023-06-14T12:37:55;2.60;;;0.47;;
76566;SDS011;65428;53.194;6.132;2023-06-14T12:40:21;2.05;;;0.60;;
76566;SDS011;65428;53.194;6.132;2023-06-14T12:42:47;2.13;;;0.40;;
76566;SDS011;65428;53.194;6.132;2023-06-14T12:45:12;2.13;;;0.47;;
76566;SDS011;65428;53.194;6.132;2023-06-14T12:47:38;3.67;;;0.40;;
76566;SDS011;65428;53.194;6.132;2023-06-14T12:50:04;1.50;;;0.50;;
76566;SDS011;65428;53.194;6.132;2023-06-14T12:52:31;2.20;;;0.50;;
76566;SDS011;65428;53.194;6.132;2023-06-14T12:54:56;1.98;;;0.50;;
76566;SDS011;65428;53.194;6.132;2023-06-14T12:57:22;1.23;;;0.40;;
76566;SDS011;65428;53.194;6.132;2023-06-14T12:59:49;1.55;;;0.45;;
76566;SDS011;65428;53.194;6.132;2023-06-14T13:02:15;2.37;;;0.50;;
76566;SDS011;65428;53.194;6.132;2023-06-14T13:04:42;3.40;;;0.50;;
76566;SDS011;65428;53.194;6.132;2023-06-14T13:07:08;2.08;;;0.40;;
76566;SDS011;65428;53.194;6.132;2023-06-14T13:09:35;2.17;;;0.50;;
76566;SDS011;65428;53.194;6.132;2023-06-14T13:12:01;3.00;;;0.50;;
76566;SDS011;65428;53.194;6.132;2023-06-14T13:14:27;2.90;;;0.40;;
76566;SDS011;65428;53.194;6.132;2023-06-14T13:16:53;2.47;;;0.47;;
76566;SDS011;65428;53.194;6.132;2023-06-14T13:19:20;2.60;;;0.50;;
76566;SDS011;65428;53.194;6.132;2023-06-14T13:21:46;2.50;;;0.80;;
76566;SDS011;65428;53.194;6.132;2023-06-14T13:24:13;2.92;;;0.40;;
76566;SDS011;65428;53.194;6.132;2023-06-14T13:26:38;2.77;;;0.47;;
76566;SDS011;65428;53.194;6.132;2023-06-14T13:29:04;2.22;;;0.30;;
76566;SDS011;65428;53.194;6.132;2023-06-14T13:31:30;1.08;;;0.40;;
76566;SDS011;65428;53.194;6.132;2023-06-14T13:33:55;1.40;;;0.40;;
76566;SDS011;65428;53.194;6.132;2023-06-14T13:36:21;2.00;;;0.40;;
76566;SDS011;65428;53.194;6.132;2023-06-14T13:38:47;1.52;;;0.50;;
76566;SDS011;65428;53.194;6.132;2023-06-14T13:41:12;3.17;;;0.50;;
76566;SDS011;65428;53.194;6.132;2023-06-14T13:43:38;2.27;;;0.50;;
76566;SDS011;65428;53.194;6.132;2023-06-14T13:46:04;2.07;;;0.57;;
76566;SDS011;65428;53.194;6.132;2023-06-14T13:48:29;2.70;;;0.40;;
76566;SDS011;65428;53.194;6.132;2023-06-14T13:50:55;2.03;;;0.40;;
76566;SDS011;65428;53.194;6.132;2023-06-14T13:53:21;1.42;;;0.40;;
76566;SDS011;65428;53.194;6.132;2023-06-14T13:55:47;1.70;;;0.50;;
76566;SDS011;65428;53.194;6.132;2023-06-14T13:58:12;2.90;;;0.47;;
76566;SDS011;65428;53.194;6.132;2023-06-14T14:00:40;1.75;;;0.40;;
76566;SDS011;65428;53.194;6.132;2023-06-14T14:03:06;2.70;;;0.50;;
76566;SDS011;65428;53.194;6.132;2023-06-14T14:05:31;3.00;;;0.47;;
76566;SDS011;65428;53.194;6.132;2023-06-14T14:07:58;1.60;;;0.57;;
76566;SDS011;65428;53.194;6.132;2023-06-14T14:10:24;1.60;;;0.50;;
76566;SDS011;65428;53.194;6.132;2023-06-14T14:12:50;2.25;;;0.70;;
76566;SDS011;65428;53.194;6.132;2023-06-14T14:15:16;3.60;;;0.60;;
76566;SDS011;65428;53.194;6.132;2023-06-14T14:17:42;2.40;;;0.50;;
76566;SDS011;65428;53.194;6.132;2023-06-14T14:20:08;3.00;;;0.40;;
76566;SDS011;65428;53.194;6.132;2023-06-14T14:22:34;1.45;;;0.45;;
76566;SDS011;65428;53.194;6.132;2023-06-14T14:25:00;1.57;;;0.50;;
76566;SDS011;65428;53.194;6.132;2023-06-14T14:27:25;1.52;;;0.50;;
76566;SDS011;65428;53.194;6.132;2023-06-14T14:29:51;2.20;;;0.50;;
76566;SDS011;65428;53.194;6.132;2023-06-14T14:32:19;2.90;;;0.50;;
76566;SDS011;65428;53.194;6.132;2023-06-14T14:34:45;3.28;;;0.52;;
76566;SDS011;65428;53.194;6.132;2023-06-14T14:37:10;3.13;;;0.57;;
76566;SDS011;65428;53.194;6.132;2023-06-14T14:39:36;3.25;;;0.50;;
76566;SDS011;65428;53.194;6.132;2023-06-14T14:42:02;2.93;;;0.50;;
76566;SDS011;65428;53.194;6.132;2023-06-14T14:44:28;3.25;;;0.40;;
76566;SDS011;65428;53.194;6.132;2023-06-14T14:46:54;1.50;;;0.40;;
76566;SDS011;65428;53.194;6.132;2023-06-14T14:49:19;2.40;;;0.50;;
76566;SDS011;65428;53.194;6.132;2023-06-14T14:51:45;2.10;;;0.50;;
76566;SDS011;65428;53.194;6.132;2023-06-14T14:54:11;2.38;;;0.50;;
76566;SDS011;65428;53.194;6.132;2023-06-14T14:56:36;3.50;;;0.77;;
76566;SDS011;65428;53.194;6.132;2023-06-14T14:59:03;5.05;;;1.30;;
76566;SDS011;65428;53.194;6.132;2023-06-14T15:01:29;3.22;;;1.00;;
76566;SDS011;65428;53.194;6.132;2023-06-14T15:03:55;4.13;;;0.98;;
76566;SDS011;65428;53.194;6.132;2023-06-14T15:06:20;2.70;;;1.23;;
76566;SDS011;65428;53.194;6.132;2023-06-14T15:08:46;4.70;;;1.30;;
76566;SDS011;65428;53.194;6.132;2023-06-14T15:11:11;3.83;;;1.08;;
76566;SDS011;65428;53.194;6.132;2023-06-14T15:13:37;3.63;;;1.10;;